CST,Max TemperatureF,Mean TemperatureF,Min TemperatureF,Max Dew PointF,MeanDew PointF,Min DewpointF,Max Humidity, Mean Humidity, Min Humidity, Max Sea Level PressureIn, Mean Sea Level PressureIn, Min Sea Level PressureIn, Max VisibilityMiles, Mean VisibilityMiles, Min VisibilityMiles, Max Wind SpeedMPH, Mean Wind SpeedMPH, Max Gust SpeedMPH,PrecipitationIn, CloudCover, Events, WindDirDegrees
2011-11-1,73,71,69,73,71,70,100,97,94,30.05,29.97,29.92,7,6,5,7,4,,0.50,7,Rain,44
2011-11-2,78,74,71,73,71,70,100,93,78,30.07,29.99,29.93,7,7,3,14,5,21,0.35,5,Rain,78
2011-11-3,80,74,69,73,70,68,100,86,74,30.06,29.98,29.93,7,7,7,16,4,,0.00,3,,42
2011-11-4,78,74,71,70,67,64,94,78,61,30.03,29.96,29.92,7,7,7,15,9,,0.00,1,,9
2011-11-5,77,73,69,70,65,61,94,77,65,30.02,29.96,29.91,8,8,7,13,9,,0.00,2,,24
2011-11-6,80,72,64,66,64,61,100,76,51,30.06,29.99,29.94,8,7,7,12,4,,0.00,2,,70
2011-11-7,80,72,64,70,68,64,100,88,65,30.05,29.98,29.93,8,7,7,12,3,,0.00,3,,57
2011-11-8,84,76,68,70,67,66,100,80,55,30.01,29.96,29.91,8,7,7,14,5,,0.00,3,,80
2011-11-9,80,72,64,72,68,64,100,87,69,30.04,29.96,29.90,8,7,6,12,3,,0.00,3,,28
2011-11-10,78,74,69,70,67,64,94,82,69,30.04,29.98,29.93,7,7,7,20,10,,0.00,3,,360
2011-11-11,77,72,66,66,65,63,100,79,69,30.13,30.05,29.99,8,8,7,21,15,23,0.25,4,,1
2011-11-12,78,69,60,64,63,61,100,78,61,30.14,30.07,30.03,8,7,7,12,7,,0.00,2,,56
2011-11-13,78,68,59,70,67,59,100,92,69,30.11,30.02,29.94,8,7,6,9,2,,5.05,3,,351
2011-11-14,78,73,68,73,71,68,100,93,78,30.05,29.96,29.90,8,7,6,14,4,,8.55,3,,108
2011-11-15,80,74,69,75,72,70,100,92,79,29.99,29.92,29.88,8,7,7,14,4,,0.00,3,,112
2011-11-16,82,76,69,75,73,70,100,90,74,29.99,29.93,29.88,8,7,7,14,3,21,0.00,3,,121
2011-11-17,82,76,69,75,70,68,100,85,70,30.06,29.99,29.93,8,8,7,12,3,,0.00,2,,61
2011-11-18,80,76,71,72,70,68,94,81,65,30.07,30.00,29.96,8,7,7,14,6,,0.00,3,,69
2011-11-19,80,76,71,73,72,70,100,93,78,30.07,30.01,29.97,8,6,1,14,6,24,5.05,4,Rain,82
2011-11-20,78,74,71,73,72,70,100,91,83,30.12,30.05,29.99,8,7,7,17,6,,1.60,2,,81
2011-11-21,80,74,68,73,71,68,100,90,78,30.13,30.04,29.99,8,7,7,14,5,,0.00,2,,85
2011-11-22,80,73,66,72,70,66,100,87,70,30.10,30.03,29.98,8,7,7,41,4,,0.00,2,,99
2011-11-23,80,72,64,70,67,64,100,85,65,30.15,30.07,30.02,8,7,7,8,3,,0.00,2,,70
2011-11-24,78,70,62,72,67,63,100,88,65,30.16,30.09,30.05,10,8,7,8,3,,0.00,2,,22
2011-11-25,80,74,66,70,68,66,100,86,65,30.12,30.03,29.96,10,8,7,9,2,,0.00,3,,75
2011-11-26,78,72,66,72,69,66,100,88,74,30.05,29.97,29.92,10,8,7,15,5,,0.00,3,,96
2011-11-27,80,72,64,72,68,63,100,91,70,30.01,29.94,29.89,9,7,2,20,2,,0.65,3,Rain,68
2011-11-28,73,68,64,68,61,55,100,78,64,30.11,30.02,29.95,8,7,7,25,17,30,0.00,4,,324
2011-11-29,71,68,64,57,56,54,77,66,56,30.16,30.09,30.04,8,7,7,16,12,,0.00,5,,327
2011-11-30,75,70,66,61,59,55,78,69,53,30.15,30.08,30.03,8,7,7,14,10,,0.00,3,,330